Time;durP1;ratioP1;P1;durP2;ratioP2;P2;SDS_P1;SDS_P2;PMS_P1;PMS_P2;Temp;Humidity;BMP_temperature;BMP_pressure;BME280_temperature;BME280_humidity;BME280_pressure;Samples;Min_cycle;Max_cycle;Signal;HPM_P1;HPM_P2
2021/12/23 00:00:18;;;;;;;5.83;5.33;;;-4.10;99.90;;;;;;4994243;28;20207;-62
2021/12/23 00:02:43;;;;;;;5.82;5.25;;;-4.10;99.90;;;;;;4993741;28;20179;-62
2021/12/23 00:05:10;;;;;;;7.17;5.63;;;-4.10;99.90;;;;;;4993826;28;20226;-62
2021/12/23 00:07:36;;;;;;;3.92;3.67;;;-4.10;99.90;;;;;;4994098;28;20183;-63
2021/12/23 00:10:06;;;;;;;5.35;2.85;;;-4.10;99.90;;;;;;4993804;28;20183;-63
2021/12/23 00:12:40;;;;;;;5.22;4.65;;;-4.10;99.90;;;;;;4993576;28;20198;-63
2021/12/23 00:15:15;;;;;;;6.15;5.70;;;-4.00;99.90;;;;;;4993938;28;20175;-62
2021/12/23 00:25:31;;;;;;;8.23;4.07;;;-3.90;99.90;;;;;;4996366;28;20533;-63
2021/12/23 00:27:56;;;;;;;3.57;3.40;;;-3.90;99.90;;;;;;4998135;28;20187;-64
2021/12/23 00:30:23;;;;;;;5.70;5.27;;;-3.90;99.90;;;;;;4998206;28;20195;-62
2021/12/23 00:32:49;;;;;;;4.20;3.95;;;-3.90;99.90;;;;;;4997541;28;20271;-63
2021/12/23 00:35:15;;;;;;;4.10;3.25;;;-3.90;99.90;;;;;;4997489;28;20218;-63
2021/12/23 00:37:44;;;;;;;8.43;6.60;;;-3.80;99.90;;;;;;4997389;28;20234;-63
2021/12/23 00:40:12;;;;;;;6.00;5.18;;;-3.80;99.90;;;;;;4997581;28;20207;-64
2021/12/23 00:42:38;;;;;;;6.57;3.72;;;-3.80;99.90;;;;;;4997156;28;20258;-64
2021/12/23 00:45:05;;;;;;;5.88;5.43;;;-3.80;99.90;;;;;;4997573;28;20187;-63
2021/12/23 00:47:31;;;;;;;5.95;5.35;;;-3.80;99.90;;;;;;4997214;28;20203;-63
2021/12/23 00:49:57;;;;;;;21.00;6.50;;;-3.80;99.90;;;;;;4997620;28;20695;-63
2021/12/23 00:52:29;;;;;;;11.25;4.72;;;-3.80;99.90;;;;;;4997035;28;20649;-63
2021/12/23 00:54:55;;;;;;;6.95;4.50;;;-3.80;99.90;;;;;;4997584;28;20182;-63
2021/12/23 00:57:27;;;;;;;6.47;5.93;;;-3.70;99.90;;;;;;4997367;28;20195;-64
2021/12/23 00:59:54;;;;;;;5.13;4.65;;;-3.70;99.90;;;;;;4997458;28;20202;-63
2021/12/23 01:02:24;;;;;;;10.25;4.55;;;-3.80;99.90;;;;;;4997263;28;20537;-63
2021/12/23 01:04:49;;;;;;;4.95;4.55;;;-3.70;99.90;;;;;;4997529;28;20533;-63
2021/12/23 01:07:15;;;;;;;3.90;3.70;;;-3.60;99.90;;;;;;4999536;28;20194;-64
2021/12/23 01:09:41;;;;;;;5.30;4.90;;;-3.60;99.90;;;;;;4997893;28;20172;-63
2021/12/23 01:12:10;;;;;;;4.67;4.37;;;-3.50;99.90;;;;;;4996881;28;20172;-66
2021/12/23 01:19:55;;;;;;;5.27;4.67;;;-3.10;99.90;;;;;;4997246;28;20210;-63
2021/12/23 01:22:22;;;;;;;6.53;5.82;;;-3.00;99.90;;;;;;4996947;28;20195;-64
2021/12/23 01:24:49;;;;;;;8.88;4.07;;;-3.10;99.90;;;;;;4996943;28;20252;-63
2021/12/23 01:27:15;;;;;;;8.88;4.75;;;-3.10;99.90;;;;;;4996881;28;20238;-63
2021/12/23 01:29:42;;;;;;;6.00;5.40;;;-3.20;99.90;;;;;;4995648;28;20175;-63
2021/12/23 01:32:08;;;;;;;5.90;3.85;;;-3.20;99.90;;;;;;4996346;28;20234;-63
2021/12/23 01:34:35;;;;;;;6.85;6.20;;;-3.30;99.90;;;;;;4995452;28;20255;-63
2021/12/23 01:37:03;;;;;;;3.40;3.20;;;-3.30;99.90;;;;;;4995866;28;20203;-63
2021/12/23 01:39:28;;;;;;;5.40;4.82;;;-3.30;99.90;;;;;;4996682;28;20191;-64
2021/12/23 01:41:54;;;;;;;4.20;3.93;;;-3.30;99.90;;;;;;4996213;28;20175;-63
2021/12/23 01:44:20;;;;;;;2.87;2.67;;;-3.40;99.90;;;;;;4996534;28;20209;-62
2021/12/23 01:46:45;;;;;;;6.47;4.83;;;-3.40;99.90;;;;;;4996250;28;20202;-62
2021/12/23 01:49:11;;;;;;;3.53;3.23;;;-3.40;99.90;;;;;;4996864;28;20699;-63
2021/12/23 01:51:37;;;;;;;12.40;4.30;;;-3.30;99.90;;;;;;4995938;28;20257;-64
2021/12/23 01:54:03;;;;;;;4.60;4.30;;;-3.40;99.90;;;;;;4996407;28;20901;-63
2021/12/23 01:56:29;;;;;;;5.20;3.88;;;-3.40;99.90;;;;;;4996144;28;20263;-63
2021/12/23 01:58:55;;;;;;;4.60;4.20;;;-3.40;99.90;;;;;;4996179;28;20759;-64
2021/12/23 02:01:21;;;;;;;3.87;3.67;;;-3.40;99.90;;;;;;4995815;28;20742;-63
2021/12/23 02:03:47;;;;;;;6.40;5.83;;;-3.40;99.90;;;;;;4996188;28;20622;-64
2021/12/23 02:06:12;;;;;;;3.47;3.17;;;-3.40;99.90;;;;;;4996006;28;20430;-63
2021/12/23 02:08:39;;;;;;;5.13;4.77;;;-3.40;99.90;;;;;;4996015;28;20820;-64
2021/12/23 02:11:08;;;;;;;6.25;5.68;;;-3.40;99.90;;;;;;4994527;28;20175;-65
2021/12/23 02:13:35;;;;;;;22.17;7.15;;;-3.40;99.90;;;;;;4996063;28;20175;-64
2021/12/23 02:16:01;;;;;;;3.35;3.25;;;-3.30;99.90;;;;;;4995827;28;20245;-63
2021/12/23 02:18:27;;;;;;;4.85;4.55;;;-3.40;99.90;;;;;;4995998;28;20191;-64
2021/12/23 02:20:54;;;;;;;6.30;5.90;;;-3.30;99.90;;;;;;4995885;28;20641;-63
2021/12/23 02:23:20;;;;;;;5.53;4.00;;;-3.30;99.90;;;;;;4995458;28;20168;-63
2021/12/23 02:25:46;;;;;;;8.48;5.75;;;-3.30;99.90;;;;;;4995615;28;20222;-62
2021/12/23 02:28:19;;;;;;;9.07;7.70;;;-3.30;99.90;;;;;;4995668;28;20187;-63
2021/12/23 02:30:46;;;;;;;7.07;5.80;;;-3.20;99.90;;;;;;4995918;28;20398;-62
2021/12/23 02:33:12;;;;;;;8.45;6.65;;;-3.20;99.90;;;;;;4995221;28;20168;-64
2021/12/23 02:35:38;;;;;;;9.40;7.93;;;-3.20;99.90;;;;;;4994517;28;20191;-62
2021/12/23 02:38:04;;;;;;;12.40;5.78;;;-3.20;99.90;;;;;;4995564;28;20198;-64
2021/12/23 02:40:37;;;;;;;15.27;5.60;;;-3.20;99.90;;;;;;4995513;28;20719;-63
2021/12/23 02:43:22;;;;;;;5.88;4.78;;;-3.20;99.90;;;;;;4995157;28;20288;-64
2021/12/23 02:45:50;;;;;;;3.95;3.65;;;-3.20;99.90;;;;;;4995493;28;20198;-63
2021/12/23 02:48:20;;;;;;;3.13;2.78;;;-3.20;99.90;;;;;;4995283;28;20198;-62
2021/12/23 02:50:49;;;;;;;5.10;3.88;;;-3.20;99.90;;;;;;4995189;28;20175;-63
2021/12/23 02:53:15;;;;;;;6.25;5.25;;;-3.20;99.90;;;;;;4994786;28;20201;-64
2021/12/23 02:55:41;;;;;;;4.95;4.43;;;-3.20;99.90;;;;;;4995305;28;20171;-63
2021/12/23 02:58:09;;;;;;;10.43;5.68;;;-3.20;99.90;;;;;;4994805;28;20196;-63
2021/12/23 03:00:35;;;;;;;8.73;4.93;;;-3.10;99.90;;;;;;4995251;28;20167;-64
2021/12/23 03:03:01;;;;;;;9.70;4.72;;;-3.10;99.90;;;;;;4994847;28;20295;-62
2021/12/23 03:05:27;;;;;;;5.83;5.27;;;-3.10;99.90;;;;;;4994978;28;20254;-64
2021/12/23 03:07:52;;;;;;;7.03;4.90;;;-3.00;99.90;;;;;;4994952;28;20192;-63
2021/12/23 03:10:22;;;;;;;6.33;4.70;;;-3.00;99.90;;;;;;4994884;28;20554;-63
2021/12/23 03:12:48;;;;;;;10.02;8.30;;;-3.00;99.90;;;;;;4994520;28;20302;-63
2021/12/23 03:15:14;;;;;;;7.70;6.28;;;-3.10;99.90;;;;;;4994876;28;20174;-62
2021/12/23 03:17:39;;;;;;;13.93;6.20;;;-3.10;99.90;;;;;;4993659;28;20282;-62
2021/12/23 03:20:05;;;;;;;3.23;3.07;;;-3.10;99.90;;;;;;4994794;28;20195;-63
2021/12/23 03:22:31;;;;;;;10.77;5.47;;;-3.10;99.90;;;;;;4994411;28;20179;-63
2021/12/23 03:24:57;;;;;;;4.77;3.40;;;-3.10;99.90;;;;;;4994587;28;20174;-63
2021/12/23 03:27:22;;;;;;;10.70;5.90;;;-3.10;99.90;;;;;;4993228;28;20215;-63
2021/12/23 03:29:48;;;;;;;4.30;4.00;;;-3.10;99.90;;;;;;4994505;28;20630;-63
2021/12/23 03:32:14;;;;;;;3.55;2.90;;;-3.10;99.90;;;;;;4994114;28;20175;-63
2021/12/23 03:34:40;;;;;;;6.73;4.70;;;-3.20;99.90;;;;;;4994475;28;20225;-63
2021/12/23 03:37:05;;;;;;;6.00;3.20;;;-3.20;99.90;;;;;;4994238;28;20198;-62
2021/12/23 03:39:31;;;;;;;5.27;4.97;;;-3.20;99.90;;;;;;4994376;28;20850;-62
2021/12/23 03:41:57;;;;;;;7.23;5.40;;;-3.20;99.90;;;;;;4993942;28;20175;-62
2021/12/23 03:44:22;;;;;;;6.63;3.57;;;-3.20;99.90;;;;;;4994461;28;20171;-62
2021/12/23 03:46:49;;;;;;;3.70;3.60;;;-3.20;99.90;;;;;;4994069;28;20582;-63
2021/12/23 03:49:14;;;;;;;6.28;5.68;;;-3.20;99.90;;;;;;4994084;28;20180;-64
2021/12/23 03:51:40;;;;;;;6.00;5.50;;;-3.20;99.90;;;;;;4993741;28;20194;-62
2021/12/23 03:54:06;;;;;;;15.23;8.07;;;-3.30;99.90;;;;;;4994405;28;20179;-62
2021/12/23 03:56:31;;;;;;;3.85;2.78;;;-3.20;99.90;;;;;;4994066;28;20191;-63
2021/12/23 03:58:58;;;;;;;4.43;4.10;;;-3.30;99.90;;;;;;4993839;28;20273;-64
2021/12/23 04:01:27;;;;;;;5.75;5.20;;;-3.30;99.90;;;;;;4993491;28;20222;-63
2021/12/23 04:03:53;;;;;;;4.57;4.20;;;-3.30;99.90;;;;;;4992720;28;20633;-63
2021/12/23 04:06:20;;;;;;;4.10;3.80;;;-3.30;99.90;;;;;;4993909;28;20196;-64
2021/12/23 04:08:46;;;;;;;3.28;2.53;;;-3.30;99.90;;;;;;4993989;28;20238;-63
2021/12/23 04:11:12;;;;;;;4.10;3.67;;;-3.30;99.90;;;;;;4993770;28;20187;-64
2021/12/23 04:13:38;;;;;;;4.05;3.50;;;-3.30;99.90;;;;;;4993814;28;20422;-62
2021/12/23 04:16:04;;;;;;;6.13;3.93;;;-3.20;99.90;;;;;;4993924;28;20197;-64
2021/12/23 04:18:30;;;;;;;5.78;3.80;;;-3.20;99.90;;;;;;4993890;28;20454;-62
2021/12/23 04:20:55;;;;;;;8.10;3.97;;;-3.20;99.90;;;;;;4993794;28;20190;-63
2021/12/23 04:23:26;;;;;;;8.27;6.03;;;-3.10;99.90;;;;;;4993281;28;20250;-63
2021/12/23 04:25:52;;;;;;;10.13;5.90;;;-3.10;99.90;;;;;;4994029;28;20651;-62
2021/12/23 04:28:19;;;;;;;3.90;3.50;;;-3.10;99.90;;;;;;4993965;28;20171;-64
2021/12/23 04:30:44;;;;;;;3.38;3.15;;;-2.90;99.90;;;;;;4992674;28;20190;-62
2021/12/23 04:33:10;;;;;;;11.97;6.47;;;-2.80;99.90;;;;;;4993529;28;20176;-63
2021/12/23 04:35:36;;;;;;;7.20;5.07;;;-2.70;99.90;;;;;;4993840;28;20167;-64
2021/12/23 04:38:03;;;;;;;5.95;4.18;;;-2.70;99.90;;;;;;4993672;28;20730;-63
2021/12/23 04:40:30;;;;;;;8.18;5.68;;;-2.60;99.90;;;;;;4993649;28;20308;-63
2021/12/23 04:42:57;;;;;;;8.52;6.63;;;-2.60;99.90;;;;;;4993394;28;20172;-63
2021/12/23 04:45:23;;;;;;;9.02;4.68;;;-2.60;99.90;;;;;;4993538;28;20199;-64
2021/12/23 04:47:49;;;;;;;5.93;5.53;;;-2.60;99.90;;;;;;4993354;28;20199;-63
2021/12/23 04:50:15;;;;;;;4.13;3.47;;;-2.60;99.90;;;;;;4993833;28;20183;-63
2021/12/23 04:52:43;;;;;;;3.72;3.53;;;-2.60;99.90;;;;;;4992339;28;20251;-63
2021/12/23 04:55:10;;;;;;;3.60;3.40;;;-2.60;99.90;;;;;;4993682;28;20171;-64
2021/12/23 04:57:36;;;;;;;5.18;4.78;;;-2.60;99.90;;;;;;4993590;28;20195;-62
2021/12/23 05:00:09;;;;;;;4.00;3.70;;;-2.50;99.90;;;;;;4993478;28;20195;-63
2021/12/23 05:02:34;;;;;;;6.72;3.60;;;-2.50;99.90;;;;;;4993101;28;20519;-63
2021/12/23 05:05:00;;;;;;;5.57;4.87;;;-2.50;99.90;;;;;;4993900;28;20172;-63
2021/12/23 05:07:26;;;;;;;6.13;5.60;;;-2.50;99.90;;;;;;4993369;28;20279;-63
2021/12/23 05:09:51;;;;;;;8.77;5.47;;;-2.50;99.90;;;;;;4993550;28;20447;-63
2021/12/23 05:12:17;;;;;;;4.70;3.97;;;-2.50;99.90;;;;;;4994812;28;20247;-63
2021/12/23 05:14:43;;;;;;;17.30;10.40;;;-2.50;99.90;;;;;;4997087;28;20164;-63
2021/12/23 05:17:08;;;;;;;8.90;7.63;;;-2.50;99.90;;;;;;4997011;28;20433;-64
2021/12/23 05:19:34;;;;;;;6.30;5.00;;;-2.50;99.90;;;;;;4996897;28;20221;-64
2021/12/23 05:22:00;;;;;;;6.07;5.60;;;-2.50;99.90;;;;;;4996867;28;20170;-63
2021/12/23 05:24:25;;;;;;;12.33;6.23;;;-2.50;99.90;;;;;;4995627;28;20163;-62
2021/12/23 05:26:51;;;;;;;5.33;4.97;;;-2.60;99.90;;;;;;4996779;28;20510;-63
2021/12/23 05:29:17;;;;;;;5.57;5.10;;;-2.60;99.90;;;;;;4996736;28;20175;-64
2021/12/23 05:31:42;;;;;;;7.83;7.07;;;-2.60;99.90;;;;;;4996233;28;20176;-63
2021/12/23 05:34:08;;;;;;;8.33;4.23;;;-2.60;99.90;;;;;;4997086;28;20176;-64
2021/12/23 05:36:34;;;;;;;7.93;4.90;;;-2.60;99.90;;;;;;4996512;28;20519;-63
2021/12/23 05:38:59;;;;;;;4.73;4.53;;;-2.70;99.90;;;;;;4996290;28;20199;-63
2021/12/23 05:41:27;;;;;;;6.63;4.50;;;-2.80;99.90;;;;;;4996038;28;20657;-63
2021/12/23 05:43:57;;;;;;;6.40;3.95;;;-2.80;99.90;;;;;;4996432;28;20164;-63
2021/12/23 05:46:23;;;;;;;4.40;3.70;;;-2.80;99.90;;;;;;4996669;28;20673;-63
2021/12/23 05:48:49;;;;;;;4.68;4.38;;;-2.90;99.90;;;;;;4996257;28;20198;-63
2021/12/23 05:51:15;;;;;;;7.25;5.30;;;-2.90;99.90;;;;;;4995904;28;20183;-63
2021/12/23 05:53:41;;;;;;;15.52;5.78;;;-3.00;99.90;;;;;;4996271;28;20178;-63
2021/12/23 05:56:07;;;;;;;5.73;3.97;;;-2.90;99.90;;;;;;4996199;28;20175;-63
2021/12/23 05:58:33;;;;;;;4.00;3.70;;;-2.90;99.90;;;;;;4994790;28;20204;-63
2021/12/23 06:00:59;;;;;;;6.53;4.23;;;-2.90;99.90;;;;;;4996050;28;20167;-63
2021/12/23 06:03:25;;;;;;;7.10;5.10;;;-3.00;99.90;;;;;;4995899;28;20399;-63
2021/12/23 06:05:51;;;;;;;7.70;6.60;;;-3.10;99.90;;;;;;4995883;28;20191;-63
2021/12/23 06:08:17;;;;;;;14.02;7.90;;;-3.10;99.90;;;;;;4995884;28;20417;-62
2021/12/23 06:10:42;;;;;;;3.27;3.07;;;-3.10;99.90;;;;;;4995862;28;20163;-63
2021/12/23 06:13:08;;;;;;;3.37;3.23;;;-3.10;99.90;;;;;;4995188;28;20222;-62
2021/12/23 06:15:34;;;;;;;4.75;4.43;;;-3.10;99.90;;;;;;4995942;28;20454;-63
2021/12/23 06:18:00;;;;;;;10.03;7.00;;;-3.10;99.90;;;;;;4995623;28;20192;-64
2021/12/23 06:20:25;;;;;;;6.53;4.13;;;-3.10;99.90;;;;;;4994450;28;20739;-63
2021/12/23 06:22:51;;;;;;;3.87;3.53;;;-3.10;99.90;;;;;;4995231;28;20175;-64
2021/12/23 06:25:17;;;;;;;4.50;3.00;;;-3.20;99.90;;;;;;4995815;28;20172;-62
2021/12/23 06:27:43;;;;;;;5.53;4.60;;;-3.20;99.90;;;;;;4995234;28;20195;-63
2021/12/23 06:30:18;;;;;;;3.13;2.97;;;-3.10;99.90;;;;;;4995317;28;20403;-63
2021/12/23 06:32:53;;;;;;;2.97;2.75;;;-3.10;99.90;;;;;;4995493;28;20568;-63
2021/12/23 06:35:22;;;;;;;7.35;4.47;;;-3.10;99.90;;;;;;4995646;28;20233;-64
2021/12/23 06:37:48;;;;;;;6.82;5.18;;;-3.10;99.90;;;;;;4995394;28;20282;-63
2021/12/23 06:40:14;;;;;;;6.60;5.83;;;-3.10;99.90;;;;;;4995607;28;20290;-63
2021/12/23 06:42:40;;;;;;;4.07;3.77;;;-3.10;99.90;;;;;;4993497;28;20553;-63
2021/12/23 06:45:06;;;;;;;8.60;5.23;;;-3.00;99.90;;;;;;4993156;28;20170;-63
2021/12/23 06:47:33;;;;;;;5.25;3.63;;;-3.00;99.90;;;;;;4991665;28;20451;-63
2021/12/23 06:49:59;;;;;;;4.85;3.47;;;-3.00;99.90;;;;;;4993046;28;20817;-63
2021/12/23 06:52:24;;;;;;;6.90;6.23;;;-2.90;99.90;;;;;;4992733;28;20183;-64
2021/12/23 06:54:53;;;;;;;4.83;4.43;;;-2.90;99.90;;;;;;4992957;28;20187;-64
2021/12/23 06:57:20;;;;;;;7.00;6.30;;;-2.80;99.90;;;;;;4992368;28;20203;-64
2021/12/23 06:59:45;;;;;;;4.35;4.03;;;-2.70;99.90;;;;;;4994733;28;20211;-63
2021/12/23 07:02:11;;;;;;;6.47;5.13;;;-2.70;99.90;;;;;;4994488;28;20176;-64
2021/12/23 07:04:39;;;;;;;7.17;5.00;;;-2.60;99.90;;;;;;4994697;28;20578;-62
2021/12/23 07:07:09;;;;;;;7.68;5.43;;;-2.50;99.90;;;;;;4994604;28;20199;-64
2021/12/23 07:09:42;;;;;;;6.05;3.78;;;-2.50;99.90;;;;;;4994673;28;20176;-63
2021/12/23 07:12:10;;;;;;;6.18;5.07;;;-2.50;99.90;;;;;;4994412;28;20175;-63
2021/12/23 07:14:37;;;;;;;3.80;2.67;;;-2.50;99.90;;;;;;4994349;28;20175;-63
2021/12/23 07:17:03;;;;;;;6.70;5.47;;;-2.40;99.90;;;;;;4992799;28;20291;-62
2021/12/23 07:19:29;;;;;;;6.68;6.00;;;-2.40;99.90;;;;;;4994536;28;20202;-62
2021/12/23 07:21:55;;;;;;;4.73;4.30;;;-2.40;99.90;;;;;;4993410;28;20183;-64
2021/12/23 07:24:21;;;;;;;6.20;4.50;;;-2.40;99.90;;;;;;4994174;28;20231;-63
2021/12/23 07:26:47;;;;;;;6.28;5.78;;;-2.40;99.90;;;;;;4994031;28;20274;-63
2021/12/23 07:29:13;;;;;;;5.72;4.88;;;-2.30;99.90;;;;;;4991746;28;20594;-63
2021/12/23 07:31:39;;;;;;;4.50;4.10;;;-2.30;99.90;;;;;;4974280;28;20543;-63
2021/12/23 07:34:05;;;;;;;5.80;4.50;;;-2.20;99.90;;;;;;4973898;28;20184;-63
2021/12/23 07:36:30;;;;;;;8.23;7.45;;;-2.10;99.90;;;;;;4974461;28;20197;-63
2021/12/23 07:38:57;;;;;;;11.07;6.40;;;-2.10;99.90;;;;;;4974466;28;20350;-63
2021/12/23 07:41:26;;;;;;;6.72;5.15;;;-2.10;99.90;;;;;;4972702;28;20192;-63
2021/12/23 07:46:21;;;;;;;10.43;8.05;;;-2.10;99.90;;;;;;4974409;28;20200;-64
2021/12/23 07:48:46;;;;;;;5.80;4.50;;;-2.00;99.90;;;;;;4974336;28;20198;-63
2021/12/23 07:51:13;;;;;;;4.30;4.00;;;-2.00;99.90;;;;;;4973782;28;20175;-63
2021/12/23 07:53:38;;;;;;;4.10;3.80;;;-2.00;99.90;;;;;;4974278;28;20538;-64
2021/12/23 07:56:04;;;;;;;4.33;3.50;;;-1.90;99.90;;;;;;4973210;28;20263;-65
2021/12/23 07:58:30;;;;;;;4.23;4.03;;;-1.80;99.90;;;;;;4977735;28;20206;-64
2021/12/23 08:00:56;;;;;;;4.95;4.45;;;-1.80;99.90;;;;;;4993815;28;20440;-64
2021/12/23 08:03:21;;;;;;;5.97;3.90;;;-1.70;99.90;;;;;;4993312;28;20227;-62
2021/12/23 08:05:48;;;;;;;3.67;3.37;;;-1.60;99.90;;;;;;4978973;28;20525;-64
2021/12/23 08:08:15;;;;;;;8.73;6.38;;;-1.60;99.90;;;;;;4974060;28;20207;-65
2021/12/23 08:10:41;;;;;;;8.83;8.23;;;-1.50;99.90;;;;;;4973132;28;20180;-64
2021/12/23 08:13:07;;;;;;;8.93;5.50;;;-1.40;99.90;;;;;;4973974;28;20181;-61
2021/12/23 08:15:33;;;;;;;10.25;7.57;;;-1.30;99.90;;;;;;4974218;28;20169;-65
2021/12/23 08:17:59;;;;;;;5.10;4.20;;;-1.20;99.90;;;;;;4974158;28;20615;-67
2021/12/23 08:20:25;;;;;;;4.70;3.73;;;-1.10;99.90;;;;;;4973973;28;20210;-69
2021/12/23 08:22:51;;;;;;;7.20;6.17;;;-1.00;99.90;;;;;;4973773;28;20168;-64
2021/12/23 08:25:17;;;;;;;5.30;4.93;;;-0.90;99.90;;;;;;4974330;28;20403;-63
2021/12/23 08:27:43;;;;;;;17.65;7.82;;;-0.80;99.90;;;;;;4974290;28;20277;-64
2021/12/23 08:30:12;;;;;;;8.05;7.20;;;-0.60;99.90;;;;;;4974411;28;20637;-64
2021/12/23 08:32:38;;;;;;;22.70;7.82;;;-0.40;99.90;;;;;;4973682;28;20180;-65
2021/12/23 08:35:05;;;;;;;12.20;7.22;;;-0.10;99.90;;;;;;4974385;28;20536;-64
2021/12/23 08:37:30;;;;;;;6.00;4.85;;;0.20;99.90;;;;;;4974180;28;20705;-64
2021/12/23 08:39:56;;;;;;;9.43;5.63;;;0.50;99.90;;;;;;4973835;28;20207;-64
2021/12/23 08:42:22;;;;;;;11.63;8.03;;;0.80;99.90;;;;;;4973599;28;20168;-64
2021/12/23 08:44:48;;;;;;;6.50;5.43;;;0.90;99.90;;;;;;4974224;28;20400;-64
2021/12/23 08:47:14;;;;;;;12.33;6.30;;;0.90;99.90;;;;;;4977051;28;20211;-64
2021/12/23 08:49:44;;;;;;;10.38;4.85;;;1.00;99.90;;;;;;4977926;28;20439;-66
2021/12/23 08:52:11;;;;;;;14.48;6.43;;;1.00;99.90;;;;;;4976322;28;20266;-65
2021/12/23 08:54:37;;;;;;;11.10;6.00;;;1.10;99.90;;;;;;4978084;28;20184;-65
2021/12/23 08:57:04;;;;;;;9.90;5.83;;;1.10;99.90;;;;;;4977987;28;20287;-67
2021/12/23 08:59:30;;;;;;;7.65;6.20;;;1.10;99.90;;;;;;4989167;28;20451;-66
2021/12/23 09:01:56;;;;;;;9.67;8.67;;;1.10;99.90;;;;;;4996973;28;20203;-65
2021/12/23 09:04:22;;;;;;;16.53;7.60;;;1.10;99.90;;;;;;4995870;28;20410;-64
2021/12/23 09:06:48;;;;;;;15.80;9.40;;;1.10;99.90;;;;;;4997129;28;20197;-64
2021/12/23 09:09:14;;;;;;;6.45;4.20;;;1.20;99.90;;;;;;4995972;28;20242;-65
2021/12/23 09:11:39;;;;;;;10.73;7.00;;;1.30;99.90;;;;;;4996768;28;20172;-65
2021/12/23 09:14:06;;;;;;;9.67;7.10;;;1.50;99.90;;;;;;4995767;28;20179;-65
2021/12/23 09:16:31;;;;;;;10.23;6.65;;;1.60;99.90;;;;;;4997712;28;20428;-65
2021/12/23 09:18:57;;;;;;;12.70;6.50;;;1.80;99.90;;;;;;4998203;28;20548;-66
2021/12/23 09:21:23;;;;;;;14.40;7.07;;;1.80;99.90;;;;;;4996417;28;20238;-65
2021/12/23 09:23:48;;;;;;;10.20;7.00;;;1.90;99.90;;;;;;4996773;28;20226;-64
2021/12/23 09:26:14;;;;;;;10.90;7.60;;;1.90;99.90;;;;;;4996770;28;20431;-64
2021/12/23 09:28:56;;;;;;;9.43;6.47;;;1.80;99.90;;;;;;4996705;28;20175;-65
2021/12/23 09:34:07;;;;;;;16.20;7.82;;;1.80;99.90;;;;;;4996808;28;20181;-65
2021/12/23 09:36:33;;;;;;;12.90;6.38;;;1.80;99.90;;;;;;4996407;28;20202;-66
2021/12/23 09:38:59;;;;;;;7.78;6.18;;;1.90;99.90;;;;;;4996581;28;20199;-64
2021/12/23 09:41:25;;;;;;;9.25;7.57;;;1.90;99.90;;;;;;4996511;28;20175;-65
2021/12/23 09:43:51;;;;;;;8.32;6.93;;;1.90;99.90;;;;;;4996388;28;20254;-65
2021/12/23 09:46:23;;;;;;;9.95;7.10;;;1.80;99.90;;;;;;4996268;28;20192;-65
2021/12/23 09:48:49;;;;;;;14.85;11.43;;;1.90;99.90;;;;;;4996285;28;20172;-65
2021/12/23 09:51:18;;;;;;;24.10;13.27;;;1.90;99.90;;;;;;4994580;28;20274;-64
2021/12/23 09:53:47;;;;;;;44.60;28.08;;;1.90;99.90;;;;;;4995995;28;20175;-66
2021/12/23 09:56:13;;;;;;;26.23;14.48;;;1.90;99.90;;;;;;4995999;28;20187;-66
2021/12/23 09:58:39;;;;;;;8.60;6.90;;;1.90;99.90;;;;;;4995092;28;20176;-66
2021/12/23 10:01:07;;;;;;;13.77;7.05;;;2.00;99.90;;;;;;4995904;28;20167;-66
2021/12/23 10:03:33;;;;;;;10.25;5.57;;;2.00;99.90;;;;;;4996115;28;20167;-65
2021/12/23 10:06:00;;;;;;;6.45;5.32;;;2.10;99.90;;;;;;4995970;28;20191;-65
2021/12/23 10:08:29;;;;;;;7.07;5.45;;;2.10;99.90;;;;;;4995997;28;20179;-65
2021/12/23 10:11:02;;;;;;;11.18;6.78;;;2.20;99.90;;;;;;4995742;28;20168;-65
2021/12/23 10:30:22;;;;;;;13.18;5.60;;;2.90;99.90;;;;;;4995657;28;20189;-65
2021/12/23 10:38:21;;;;;;;10.60;7.78;;;3.30;99.90;;;;;;4995759;28;20194;-65
2021/12/23 10:40:50;;;;;;;9.07;6.95;;;3.50;99.90;;;;;;4996277;28;20205;-65
2021/12/23 10:43:21;;;;;;;17.45;9.40;;;3.60;99.90;;;;;;4994526;28;20625;-66
2021/12/23 10:45:58;;;;;;;8.20;5.28;;;3.80;99.90;;;;;;4995698;28;20177;-65
2021/12/23 10:48:27;;;;;;;9.07;7.70;;;3.80;99.90;;;;;;4994271;28;20671;-66
2021/12/23 10:51:01;;;;;;;16.05;7.35;;;3.90;99.90;;;;;;4995326;28;20176;-66
2021/12/23 10:59:06;;;;;;;7.40;6.47;;;4.00;99.90;;;;;;4995424;28;20209;-65
2021/12/23 11:01:36;;;;;;;10.02;7.18;;;4.00;99.90;;;;;;4993348;28;20218;-65
2021/12/23 11:04:04;;;;;;;13.50;7.03;;;4.10;99.90;;;;;;4994898;28;20725;-67
2021/12/23 11:06:37;;;;;;;8.25;6.38;;;4.10;99.90;;;;;;4994930;28;20203;-66
2021/12/23 11:09:30;;;;;;;10.05;5.93;;;4.20;99.90;;;;;;4977695;28;20175;-65
2021/12/23 11:37:16;;;;;;;12.27;6.05;;;5.00;99.90;;;;;;4994806;28;20253;-64
2021/12/23 11:40:04;;;;;;;10.88;5.25;;;5.30;99.90;;;;;;4994500;28;20685;-64
2021/12/23 11:42:40;;;;;;;7.25;6.45;;;5.40;99.90;;;;;;4993963;28;20175;-64
2021/12/23 11:45:06;;;;;;;10.30;6.00;;;5.50;99.90;;;;;;4994580;28;20174;-65
2021/12/23 11:47:32;;;;;;;8.83;4.90;;;5.70;99.90;;;;;;4994131;28;20207;-64
2021/12/23 11:49:58;;;;;;;6.90;4.65;;;5.90;99.90;;;;;;4994398;28;20173;-65
2021/12/23 11:52:24;;;;;;;8.13;4.70;;;6.00;99.90;;;;;;4993838;28;20171;-66
2021/12/23 11:54:50;;;;;;;3.60;3.30;;;6.20;99.90;;;;;;4994222;28;20409;-64
2021/12/23 11:57:36;;;;;;;6.47;4.47;;;6.40;99.90;;;;;;4992655;28;20201;-65
2021/12/23 12:00:15;;;;;;;7.10;5.80;;;6.50;99.90;;;;;;4993753;28;20561;-64
2021/12/23 12:02:42;;;;;;;5.95;4.53;;;6.70;99.90;;;;;;4993804;28;20170;-65
2021/12/23 12:05:16;;;;;;;9.13;4.63;;;6.80;99.90;;;;;;4992689;28;20644;-66
2021/12/23 12:07:42;;;;;;;8.90;4.90;;;7.00;99.90;;;;;;4992768;28;20205;-64
2021/12/23 12:10:12;;;;;;;5.80;4.23;;;7.10;99.90;;;;;;4992800;28;20641;-65
2021/12/23 12:12:55;;;;;;;8.50;5.53;;;7.20;99.90;;;;;;4993782;28;20178;-64
2021/12/23 12:15:39;;;;;;;4.47;3.95;;;7.30;99.90;;;;;;4994091;28;20174;-65
2021/12/23 12:18:10;;;;;;;9.73;6.07;;;7.40;99.90;;;;;;4993888;28;20198;-65
2021/12/23 12:20:47;;;;;;;8.75;5.20;;;7.40;99.90;;;;;;4995111;28;20552;-65
2021/12/23 12:23:33;;;;;;;8.82;5.80;;;7.50;99.90;;;;;;4998287;28;20197;-64
2021/12/23 12:26:08;;;;;;;5.80;4.15;;;7.50;99.90;;;;;;4998105;28;20179;-64
2021/12/23 12:28:46;;;;;;;4.72;4.20;;;7.60;99.90;;;;;;4997383;28;20170;-63
2021/12/23 12:31:16;;;;;;;9.20;4.30;;;7.60;99.90;;;;;;4997315;28;20182;-65
2021/12/23 12:34:02;;;;;;;5.68;4.88;;;7.70;99.90;;;;;;4997743;28;20253;-64
2021/12/23 12:36:28;;;;;;;5.60;4.55;;;7.80;99.90;;;;;;4997262;28;20209;-65
2021/12/23 12:39:24;;;;;;;8.02;4.95;;;7.90;99.90;;;;;;4995573;28;20206;-65
2021/12/23 12:41:53;;;;;;;7.07;4.10;;;7.90;99.90;;;;;;4976587;28;20176;-65
2021/12/23 12:44:34;;;;;;;4.70;3.60;;;7.90;99.90;;;;;;4978010;28;20187;-64
2021/12/23 12:47:04;;;;;;;5.75;3.38;;;7.80;99.90;;;;;;4989232;28;20565;-64
2021/12/23 12:49:37;;;;;;;6.07;4.25;;;7.90;99.90;;;;;;4996119;28;20183;-66
2021/12/23 12:52:18;;;;;;;3.70;3.22;;;7.90;99.90;;;;;;4996954;28;20187;-62
2021/12/23 12:55:10;;;;;;;4.70;4.30;;;7.90;99.90;;;;;;4997141;28;20179;-62
2021/12/23 12:57:41;;;;;;;7.20;4.53;;;7.90;99.80;;;;;;4996619;28;20405;-63
2021/12/23 13:00:32;;;;;;;4.28;3.67;;;7.90;99.40;;;;;;4995726;28;20510;-63
2021/12/23 13:03:05;;;;;;;2.95;2.75;;;7.90;99.30;;;;;;4997061;28;20175;-63
2021/12/23 13:05:53;;;;;;;10.80;4.13;;;7.80;99.20;;;;;;4997270;28;20164;-63
2021/12/23 13:08:29;;;;;;;8.57;3.67;;;7.80;99.70;;;;;;4997267;28;20251;-63
2021/12/23 13:11:22;;;;;;;9.45;5.60;;;7.70;99.70;;;;;;4997969;28;20229;-62
2021/12/23 13:13:59;;;;;;;6.05;3.60;;;7.70;99.80;;;;;;4995229;28;20650;-64
2021/12/23 13:16:25;;;;;;;3.53;3.22;;;7.70;99.80;;;;;;4995725;28;20195;-62
2021/12/23 13:19:17;;;;;;;6.30;3.60;;;7.60;99.80;;;;;;4996968;28;20290;-62
2021/12/23 13:21:45;;;;;;;3.47;3.13;;;7.60;99.90;;;;;;4996560;28;20441;-62
2021/12/23 13:24:12;;;;;;;3.70;2.70;;;7.60;99.90;;;;;;4996669;28;20178;-63
2021/12/23 13:26:38;;;;;;;4.43;3.42;;;7.70;99.90;;;;;;4996825;28;20195;-63
2021/12/23 13:29:06;;;;;;;2.80;2.60;;;7.70;99.90;;;;;;4996685;28;20282;-63
2021/12/23 13:31:35;;;;;;;5.00;4.28;;;7.80;99.90;;;;;;4996132;28;20201;-63
2021/12/23 13:34:01;;;;;;;3.30;2.97;;;7.80;99.80;;;;;;4995621;28;20181;-64
2021/12/23 13:36:37;;;;;;;4.40;3.17;;;7.80;99.70;;;;;;4996329;28;20278;-62
2021/12/23 13:39:13;;;;;;;6.38;5.40;;;7.70;99.80;;;;;;4996054;28;20631;-63
2021/12/23 13:41:40;;;;;;;3.70;3.33;;;7.80;99.70;;;;;;4996062;28;20265;-63
2021/12/23 13:44:15;;;;;;;5.50;3.30;;;7.70;99.60;;;;;;4996506;28;20202;-63
2021/12/23 13:46:54;;;;;;;3.33;3.03;;;7.70;99.70;;;;;;4996147;28;20560;-62
2021/12/23 13:49:29;;;;;;;5.40;3.88;;;7.80;99.40;;;;;;4996228;28;20182;-63
2021/12/23 13:51:54;;;;;;;9.30;4.10;;;7.80;99.60;;;;;;4995985;28;20194;-63
2021/12/23 13:54:20;;;;;;;7.00;3.70;;;7.70;99.60;;;;;;4995523;28;20178;-62
2021/12/23 13:56:49;;;;;;;3.73;3.43;;;7.70;99.90;;;;;;4995168;28;20226;-62
2021/12/23 13:59:25;;;;;;;5.47;4.97;;;7.70;99.90;;;;;;4995611;28;20221;-62
2021/12/23 14:01:52;;;;;;;4.60;3.17;;;7.90;99.90;;;;;;4995694;28;20183;-63
2021/12/23 14:04:28;;;;;;;3.88;2.85;;;7.80;99.90;;;;;;4996297;28;20518;-62